Time;durP1;ratioP1;P1;durP2;ratioP2;P2;SDS_P1;SDS_P2;PMS_P1;PMS_P2;Temp;Humidity;BMP_temperature;BMP_pressure;BME280_temperature;BME280_humidity;BME280_pressure;Samples;Min_cycle;Max_cycle;Signal;HPM_P1;HPM_P2
2023/08/26 00:04:47;;;;;;;0.30;0.30;;;;;;;23.51;60.55;96268.47;10444666;28;20049;-30
2023/08/26 00:09:47;;;;;;;0.68;0.68;;;;;;;23.51;60.67;96280.38;10455833;28;20466;-30
2023/08/26 00:14:48;;;;;;;0.50;0.50;;;;;;;23.50;60.38;96269.31;10442719;28;20037;-29
2023/08/26 00:19:50;;;;;;;0.53;0.50;;;;;;;23.51;60.55;96265.06;10451527;28;20064;-29
2023/08/26 00:24:51;;;;;;;0.35;0.30;;;;;;;23.50;60.49;96255.72;10434392;28;20037;-30
2023/08/26 00:29:51;;;;;;;0.38;0.38;;;;;;;23.51;60.44;96242.06;10447665;28;20490;-29
2023/08/26 00:34:51;;;;;;;1.33;1.00;;;;;;;23.49;60.69;96247.19;10447133;28;20037;-30
2023/08/26 00:39:52;;;;;;;0.67;0.57;;;;;;;23.52;60.58;96313.59;10441528;28;20406;-30
2023/08/26 00:44:52;;;;;;;0.63;0.63;;;;;;;23.46;60.72;96288.19;10447033;28;20037;-31
2023/08/26 00:49:53;;;;;;;0.83;0.83;;;;;;;23.53;60.55;96309.28;10432467;28;20790;-30
2023/08/26 00:54:53;;;;;;;0.70;0.70;;;;;;;23.50;60.59;96299.97;10444373;28;20396;-30
2023/08/26 00:59:54;;;;;;;0.60;0.60;;;;;;;23.51;60.50;96306.78;10426848;28;20037;-31
2023/08/26 01:04:55;;;;;;;0.60;0.60;;;;;;;23.49;60.48;96317.94;10440773;28;20048;-29
2023/08/26 01:09:55;;;;;;;0.55;0.55;;;;;;;23.51;60.47;96321.28;10437834;28;20052;-30
2023/08/26 01:15:11;;;;;;;0.60;0.60;;;;;;;23.50;60.42;96325.53;10435965;28;20089;-29
2023/08/26 01:20:13;;;;;;;0.60;0.60;;;;;;;23.51;60.58;96321.28;10409822;28;20037;-29
2023/08/26 01:25:16;;;;;;;0.80;0.73;;;;;;;23.51;60.58;96324.69;10446006;28;20541;-29
2023/08/26 01:30:16;;;;;;;1.08;0.60;;;;;;;23.51;60.69;96327.25;10432946;28;20040;-29
2023/08/26 01:35:23;;;;;;;1.00;0.80;;;;;;;23.46;60.52;96302.66;10451774;28;20070;-29
2023/08/26 01:40:24;;;;;;;1.33;0.70;;;;;;;23.50;60.55;96317.06;10428745;28;20422;-28
2023/08/26 01:45:25;;;;;;;0.50;0.50;;;;;;;23.50;60.47;96322.97;10426502;28;20036;-31
2023/08/26 01:50:26;;;;;;;0.45;0.45;;;;;;;23.51;60.59;96334.06;10450215;28;20036;-30
2023/08/26 01:55:26;;;;;;;0.67;0.67;;;;;;;23.50;60.76;96328.09;10432142;28;20407;-30
2023/08/26 02:00:27;;;;;;;0.60;0.60;;;;;;;23.51;60.39;96332.34;10449647;28;20563;-30
2023/08/26 02:05:28;;;;;;;0.60;0.60;;;;;;;23.50;60.61;96320.44;10425127;28;20152;-30
2023/08/26 02:10:28;;;;;;;0.50;0.50;;;;;;;23.50;60.45;96317.88;10438780;28;20037;-30
2023/08/26 02:15:33;;;;;;;0.65;0.60;;;;;;;23.50;60.41;96319.59;10426979;28;20043;-30
2023/08/26 02:20:33;;;;;;;0.60;0.60;;;;;;;23.49;60.65;96334.09;10422299;28;20396;-30
2023/08/26 02:25:33;;;;;;;0.77;0.67;;;;;;;23.49;60.67;96311.09;10439398;28;20036;-29
2023/08/26 02:30:36;;;;;;;0.60;0.50;;;;;;;23.48;60.42;96314.53;10426685;28;20028;-28
2023/08/26 02:35:36;;;;;;;0.65;0.65;;;;;;;23.49;60.07;96313.63;10447872;28;20082;-29
2023/08/26 02:40:37;;;;;;;0.50;0.40;;;;;;;23.48;60.55;96324.75;10437162;28;20033;-30
2023/08/26 02:45:38;;;;;;;0.50;0.50;;;;;;;23.49;60.49;96323.88;10440025;28;20287;-30
2023/08/26 02:50:39;;;;;;;0.50;0.50;;;;;;;23.50;60.49;96334.94;10417621;28;20553;-30
2023/08/26 02:55:40;;;;;;;0.77;0.60;;;;;;;23.49;60.61;96340.94;10421610;28;20033;-29
2023/08/26 03:00:40;;;;;;;0.77;0.53;;;;;;;23.46;60.71;96334.19;10439415;28;20033;-30
2023/08/26 03:05:41;;;;;;;0.50;0.50;;;;;;;23.50;60.45;96340.88;10414638;28;20045;-30
2023/08/26 03:10:41;;;;;;;0.60;0.60;;;;;;;23.49;60.58;96334.09;10430232;28;20568;-30
2023/08/26 03:15:41;;;;;;;0.60;0.60;;;;;;;23.49;60.39;96326.41;10424616;28;20033;-29
2023/08/26 03:20:42;;;;;;;0.75;0.75;;;;;;;23.50;60.33;96334.94;10417540;28;20025;-30
2023/08/26 03:25:42;;;;;;;0.80;0.60;;;;;;;23.50;60.39;96345.97;10431642;28;20041;-30
2023/08/26 03:30:42;;;;;;;0.30;0.30;;;;;;;23.50;60.41;96356.19;10431197;28;20040;-30
2023/08/26 03:35:44;;;;;;;0.63;0.50;;;;;;;23.50;60.56;96350.28;10427519;28;20484;-30
2023/08/26 03:40:45;;;;;;;6.88;1.38;;;;;;;23.48;60.70;96340.06;10421631;28;20029;-30
2023/08/26 03:45:49;;;;;;;0.60;0.60;;;;;;;23.49;60.64;96339.19;10424548;28;20029;-29
2023/08/26 03:50:53;;;;;;;0.50;0.50;;;;;;;23.49;60.33;96344.31;10421321;28;20025;-30
2023/08/26 03:55:53;;;;;;;0.60;0.60;;;;;;;23.49;60.49;96349.41;10438811;28;20032;-30
2023/08/26 04:01:01;;;;;;;0.53;0.53;;;;;;;23.50;60.38;96350.28;10433479;28;20372;-30
2023/08/26 04:06:04;;;;;;;0.68;0.60;;;;;;;23.49;60.65;96354.53;10429502;28;20084;-30
2023/08/26 04:11:04;;;;;;;0.70;0.70;;;;;;;23.48;60.53;96350.28;10437280;28;20439;-30
2023/08/26 04:16:04;;;;;;;0.50;0.50;;;;;;;23.47;60.49;96350.31;10437316;28;20040;-30
2023/08/26 04:21:05;;;;;;;0.40;0.40;;;;;;;23.49;60.45;96361.38;10437234;28;20053;-29
2023/08/26 04:26:05;;;;;;;0.70;0.60;;;;;;;23.47;60.28;96358.84;10426263;28;20029;-30
2023/08/26 04:31:07;;;;;;;0.70;0.70;;;;;;;23.48;60.41;96365.63;10438192;28;20375;-30
2023/08/26 04:36:08;;;;;;;0.75;0.40;;;;;;;23.48;60.39;96360.53;10431442;28;20280;-30
2023/08/26 04:41:09;;;;;;;0.97;0.60;;;;;;;23.48;60.51;96368.19;10437626;28;20646;-29
2023/08/26 04:46:10;;;;;;;0.63;0.60;;;;;;;23.48;60.59;96367.38;10452752;28;20306;-30
2023/08/26 04:51:10;;;;;;;0.70;0.70;;;;;;;23.48;60.46;96375.84;10436401;28;20048;-30
2023/08/26 04:56:10;;;;;;;0.77;0.77;;;;;;;23.49;60.43;96389.47;10442432;28;20035;-30
2023/08/26 05:01:12;;;;;;;0.50;0.50;;;;;;;23.48;60.29;96398.03;10421214;28;20041;-30
2023/08/26 05:06:12;;;;;;;0.60;0.60;;;;;;;23.48;60.48;96403.97;10447671;28;20026;-29
2023/08/26 05:11:13;;;;;;;0.60;0.60;;;;;;;23.48;60.46;96403.97;10445576;28;20029;-30
2023/08/26 05:16:14;;;;;;;0.80;0.47;;;;;;;23.48;60.41;96393.75;10424147;28;20033;-29
2023/08/26 05:21:14;;;;;;;0.53;0.40;;;;;;;23.48;60.58;96401.41;10443718;28;20045;-29
2023/08/26 05:26:15;;;;;;;0.80;0.70;;;;;;;23.48;60.54;96393.75;10421726;28;20037;-30
2023/08/26 05:31:16;;;;;;;0.80;0.57;;;;;;;23.48;60.50;96380.97;10440385;28;20037;-30
2023/08/26 05:36:18;;;;;;;0.80;0.73;;;;;;;23.46;60.49;96390.41;10423722;28;20048;-29
2023/08/26 05:41:18;;;;;;;0.60;0.60;;;;;;;23.49;60.35;96402.25;10446649;28;20110;-29
2023/08/26 05:46:19;;;;;;;0.50;0.50;;;;;;;23.48;60.31;96403.97;10432673;28;20110;-30
2023/08/26 05:51:19;;;;;;;0.60;0.60;;;;;;;23.48;60.54;96401.41;10433419;28;20483;-29
2023/08/26 05:56:19;;;;;;;0.60;0.60;;;;;;;23.48;60.40;96388.63;10424470;28;20445;-29
2023/08/26 06:01:20;;;;;;;0.57;0.57;;;;;;;23.47;60.36;96381.84;10444149;28;20033;-30
2023/08/26 06:06:22;;;;;;;0.40;0.40;;;;;;;23.48;60.39;96398.03;10424518;28;20689;-31
2023/08/26 06:11:22;;;;;;;1.30;1.20;;;;;;;23.48;60.39;96387.81;10428713;28;20048;-29
2023/08/26 06:16:23;;;;;;;1.80;0.65;;;;;;;23.49;60.39;96409.94;10424520;28;20061;-29
2023/08/26 06:21:23;;;;;;;0.50;0.50;;;;;;;23.44;60.54;96401.53;10427685;28;20032;-30
2023/08/26 06:26:24;;;;;;;1.43;0.90;;;;;;;23.48;60.57;96403.97;10429503;28;20076;-29
2023/08/26 06:31:24;;;;;;;0.60;0.60;;;;;;;23.48;60.34;96401.41;10425865;28;20041;-29
2023/08/26 06:36:27;;;;;;;0.47;0.40;;;;;;;23.48;60.43;96401.41;10417420;28;20029;-29
2023/08/26 06:41:28;;;;;;;1.07;0.63;;;;;;;23.41;60.46;96392.22;10423761;28;20025;-29
2023/08/26 06:46:28;;;;;;;0.50;0.50;;;;;;;23.48;60.70;96408.25;10417373;28;20071;-29
2023/08/26 06:51:29;;;;;;;0.57;0.57;;;;;;;23.47;60.38;96402.28;10449814;28;20495;-29
2023/08/26 06:56:29;;;;;;;0.37;0.37;;;;;;;23.47;60.46;96375.88;10429532;28;20028;-29
2023/08/26 07:01:31;;;;;;;0.60;0.60;;;;;;;23.48;60.42;96387.81;10431373;28;20033;-29
2023/08/26 07:06:31;;;;;;;0.40;0.40;;;;;;;23.45;60.56;96388.72;10436175;28;20104;-29
2023/08/26 07:11:32;;;;;;;1.05;0.77;;;;;;;23.46;60.57;96382.72;10437301;28;20167;-29
2023/08/26 07:16:32;;;;;;;0.55;0.50;;;;;;;23.47;60.49;96397.19;10436557;28;20036;-29
2023/08/26 07:21:33;;;;;;;0.60;0.40;;;;;;;23.47;60.47;96397.19;10424333;28;20038;-29
2023/08/26 07:26:33;;;;;;;0.50;0.50;;;;;;;23.47;60.36;96399.72;10440634;28;20087;-30
2023/08/26 07:31:34;;;;;;;0.73;0.50;;;;;;;23.47;60.57;96394.63;10420917;28;20458;-30
2023/08/26 07:36:34;;;;;;;0.47;0.40;;;;;;;23.48;60.28;96390.38;10434605;28;20492;-30
2023/08/26 07:41:35;;;;;;;0.63;0.63;;;;;;;23.46;60.30;96400.63;10430337;28;20282;-30
2023/08/26 07:46:35;;;;;;;0.52;0.52;;;;;;;23.46;60.48;96384.44;10441014;28;20056;-30
2023/08/26 07:51:35;;;;;;;0.50;0.43;;;;;;;23.45;60.35;96388.72;10435185;28;20114;-29
2023/08/26 07:56:36;;;;;;;0.77;0.50;;;;;;;23.47;60.29;96393.75;10438333;28;20404;-30
2023/08/26 08:01:36;;;;;;;0.40;0.40;;;;;;;23.45;60.28;96398.94;10439467;28;20063;-30
2023/08/26 08:06:36;;;;;;;0.67;0.47;;;;;;;23.45;60.43;96401.50;10435610;28;20284;-30
2023/08/26 08:11:37;;;;;;;0.57;0.57;;;;;;;23.46;60.37;96415.09;10454124;28;20056;-29
2023/08/26 08:16:37;;;;;;;0.40;0.40;;;;;;;23.43;60.48;96416.03;10438017;28;20476;-30
2023/08/26 08:21:37;;;;;;;0.60;0.40;;;;;;;23.45;60.36;96409.16;10433791;28;20372;-30
2023/08/26 08:26:40;;;;;;;0.90;0.50;;;;;;;23.44;60.53;96397.25;10442030;28;20491;-31
2023/08/26 08:31:40;;;;;;;0.38;0.38;;;;;;;23.44;60.50;96397.25;10431583;28;20043;-29
2023/08/26 08:36:41;;;;;;;0.70;0.50;;;;;;;23.44;60.50;96407.47;10416666;28;20029;-29
2023/08/26 08:41:42;;;;;;;0.60;0.50;;;;;;;23.46;60.49;96415.09;10454437;28;20029;-30
2023/08/26 08:46:43;;;;;;;0.43;0.40;;;;;;;23.43;60.29;96408.38;10440554;28;20029;-29
2023/08/26 08:51:44;;;;;;;0.43;0.40;;;;;;;23.44;60.83;96397.25;10437465;28;20044;-29
2023/08/26 08:56:45;;;;;;;0.50;0.50;;;;;;;23.46;60.37;96399.75;10428940;28;20051;-30
2023/08/26 09:01:46;;;;;;;0.40;0.40;;;;;;;23.43;60.45;96390.47;10421790;28;20060;-30
2023/08/26 09:06:46;;;;;;;0.50;0.50;;;;;;;23.45;60.29;96373.38;10432634;28;20037;-30
2023/08/26 09:11:48;;;;;;;0.50;0.50;;;;;;;23.45;60.50;96352.94;10425637;28;20037;-30
2023/08/26 09:16:48;;;;;;;0.77;0.55;;;;;;;23.45;60.28;96352.94;10445026;28;20355;-30
2023/08/26 09:21:48;;;;;;;0.50;0.50;;;;;;;23.45;60.21;96357.19;10430306;28;20074;-29
2023/08/26 09:26:59;;;;;;;0.70;0.70;;;;;;;23.45;60.31;96350.38;10443258;28;20304;-30
2023/08/26 09:31:59;;;;;;;0.60;0.60;;;;;;;23.47;60.40;96381.84;10438681;28;20032;-30
2023/08/26 09:36:59;;;;;;;0.80;0.80;;;;;;;23.46;60.31;96390.41;10439446;28;20480;-30
2023/08/26 09:42:00;;;;;;;0.43;0.43;;;;;;;23.45;60.32;96378.50;10441041;28;20287;-30
2023/08/26 09:47:03;;;;;;;0.63;0.63;;;;;;;23.45;60.45;96409.16;10439692;28;20075;-30
2023/08/26 09:52:03;;;;;;;0.60;0.60;;;;;;;23.46;60.53;96425.31;10451544;28;20039;-29
2023/08/26 09:57:04;;;;;;;0.70;0.60;;;;;;;23.45;60.46;96410.84;10436855;28;20041;-29
2023/08/26 10:02:22;;;;;;;0.45;0.40;;;;;;;23.44;60.38;96407.47;10443407;28;20110;-30
2023/08/26 10:07:28;;;;;;;0.57;0.47;;;;;;;23.44;60.31;96417.72;10424632;28;20032;-30
2023/08/26 10:12:33;;;;;;;0.68;0.45;;;;;;;23.45;60.41;96429.59;10435714;28;20036;-29
2023/08/26 10:17:35;;;;;;;0.60;0.60;;;;;;;23.45;60.30;96424.50;10436612;28;20037;-29
2023/08/26 10:22:37;;;;;;;0.50;0.50;;;;;;;23.44;60.31;96437.28;10432702;28;20034;-30
2023/08/26 10:27:40;;;;;;;0.22;0.22;;;;;;;23.44;60.33;96437.28;10436206;28;20123;-29
2023/08/26 10:32:43;;;;;;;0.45;0.40;;;;;;;23.42;60.41;96432.22;10428484;28;20404;-29
2023/08/26 10:37:44;;;;;;;0.63;0.52;;;;;;;23.42;60.53;96413.50;10428352;28;20032;-29
2023/08/26 10:43:05;;;;;;;0.40;0.40;;;;;;;23.41;60.39;96415.19;10428067;28;20029;-30
2023/08/26 10:48:07;;;;;;;0.40;0.40;;;;;;;23.42;60.38;96428.84;10441705;28;20511;-30
2023/08/26 10:53:16;;;;;;;0.40;0.40;;;;;;;23.43;60.18;96428.81;10420179;28;20782;-29
2023/08/26 10:58:20;;;;;;;0.65;0.35;;;;;;;23.42;60.15;96414.31;10446677;28;20032;-29
2023/08/26 11:03:22;;;;;;;0.40;0.32;;;;;;;23.42;60.36;96429.66;10439759;28;20078;-30
2023/08/26 11:08:23;;;;;;;0.50;0.50;;;;;;;23.43;60.26;96431.38;10439463;28;20600;-30
2023/08/26 11:13:23;;;;;;;0.40;0.40;;;;;;;23.43;60.26;96421.13;10448944;28;20318;-30
2023/08/26 11:18:24;;;;;;;0.20;0.20;;;;;;;23.41;60.38;96416.94;10443778;28;20044;-29
2023/08/26 11:23:25;;;;;;;0.77;0.57;;;;;;;23.42;60.12;96424.53;10440697;28;20496;-30
2023/08/26 11:28:30;;;;;;;0.55;0.55;;;;;;;23.43;60.30;96430.50;10445435;28;20071;-30
2023/08/26 11:33:31;;;;;;;0.40;0.40;;;;;;;23.43;60.39;96451.81;10428213;28;20037;-29
2023/08/26 11:38:35;;;;;;;0.52;0.52;;;;;;;23.42;60.33;96465.44;10448748;28;20032;-30
2023/08/26 11:43:36;;;;;;;0.50;0.50;;;;;;;23.43;60.23;96472.25;10433375;28;20033;-29
2023/08/26 11:48:37;;;;;;;0.60;0.60;;;;;;;23.44;60.36;96458.59;10441153;28;20137;-30
2023/08/26 11:53:37;;;;;;;0.63;0.60;;;;;;;23.43;60.09;96477.34;10437575;28;20108;-29
2023/08/26 11:58:38;;;;;;;0.60;0.53;;;;;;;23.43;60.44;96477.34;10445936;28;20040;-30
2023/08/26 12:03:42;;;;;;;0.50;0.40;;;;;;;23.43;60.47;96461.16;10454837;28;20287;-30
2023/08/26 12:08:44;;;;;;;0.40;0.40;;;;;;;23.43;60.36;96450.94;10424431;28;20029;-30
2023/08/26 12:13:45;;;;;;;0.55;0.55;;;;;;;23.42;60.37;96424.53;10440819;28;20029;-29
2023/08/26 12:18:46;;;;;;;0.50;0.50;;;;;;;23.42;60.42;96424.53;10430671;28;20036;-29
2023/08/26 12:23:48;;;;;;;0.60;0.60;;;;;;;23.42;60.31;96411.78;10428293;28;20041;-30
2023/08/26 12:28:49;;;;;;;0.50;0.30;;;;;;;23.40;60.20;96410.97;10426798;28;20574;-30
2023/08/26 12:33:49;;;;;;;0.32;0.32;;;;;;;23.41;60.27;96422.88;10428918;28;20091;-30
2023/08/26 12:38:50;;;;;;;0.50;0.50;;;;;;;23.42;60.45;96444.97;10446483;28;20087;-29
2023/08/26 12:43:52;;;;;;;0.40;0.40;;;;;;;23.42;60.24;96437.31;10428322;28;20488;-29
2023/08/26 12:48:52;;;;;;;0.30;0.30;;;;;;;23.41;60.30;96445.88;10429534;28;20033;-30
2023/08/26 12:53:53;;;;;;;0.70;0.70;;;;;;;23.41;60.31;96432.28;10424038;28;20033;-30
2023/08/26 12:58:53;;;;;;;0.57;0.52;;;;;;;23.42;60.09;96434.75;10453738;28;20411;-30
2023/08/26 13:03:54;;;;;;;0.40;0.40;;;;;;;23.42;60.15;96444.16;10441058;28;20037;-29
2023/08/26 13:08:54;;;;;;;0.50;0.50;;;;;;;23.43;60.19;96421.13;10453392;28;20480;-30
2023/08/26 13:13:54;;;;;;;0.50;0.50;;;;;;;23.36;60.00;96388.94;10418396;28;20033;-31
2023/08/26 13:18:55;;;;;;;0.63;0.53;;;;;;;23.42;60.27;96413.50;10434372;28;20042;-29
2023/08/26 13:23:55;;;;;;;0.70;0.60;;;;;;;23.42;60.34;96408.38;10452492;28;20033;-29
2023/08/26 13:28:55;;;;;;;0.50;0.50;;;;;;;23.41;60.18;96401.59;10430951;28;20037;-30
2023/08/26 13:33:56;;;;;;;0.47;0.47;;;;;;;23.41;60.29;96396.50;10449693;28;20033;-29
2023/08/26 13:38:56;;;;;;;0.60;0.43;;;;;;;23.42;60.34;96414.31;10415492;28;20037;-30
2023/08/26 13:43:57;;;;;;;0.63;0.63;;;;;;;23.42;60.56;96406.66;10444461;28;20063;-30
2023/08/26 13:49:00;;;;;;;0.90;0.73;;;;;;;23.42;60.37;96398.16;10436302;28;20508;-30
2023/08/26 13:54:01;;;;;;;0.98;0.60;;;;;;;23.40;60.63;96359.06;10430278;28;20121;-30
2023/08/26 13:59:02;;;;;;;0.40;0.40;;;;;;;23.40;60.29;96354.75;10443225;28;20372;-29
2023/08/26 14:04:02;;;;;;;0.47;0.47;;;;;;;23.41;60.25;96336.00;10430612;28;20033;-31
2023/08/26 14:09:03;;;;;;;0.50;0.50;;;;;;;23.40;60.32;96326.66;10450801;28;20033;-30
2023/08/26 14:14:04;;;;;;;0.50;0.50;;;;;;;23.40;60.18;96316.44;10429689;28;20483;-30
2023/08/26 14:19:05;;;;;;;0.60;0.60;;;;;;;23.41;60.26;96309.63;10433776;28;20032;-30
2023/08/26 14:24:05;;;;;;;0.50;0.50;;;;;;;23.41;60.42;96300.22;10433808;28;20457;-30
2023/08/26 14:29:06;;;;;;;0.55;0.55;;;;;;;23.40;60.42;96302.84;10427982;28;20090;-29
2023/08/26 14:34:06;;;;;;;0.60;0.60;;;;;;;23.41;60.47;96310.44;10437944;28;20121;-30
2023/08/26 14:39:07;;;;;;;0.67;0.67;;;;;;;23.41;60.15;96328.34;10417719;28;20492;-29
2023/08/26 14:44:07;;;;;;;0.52;0.52;;;;;;;23.41;60.45;96343.66;10436583;28;20801;-30
2023/08/26 14:49:07;;;;;;;0.40;0.40;;;;;;;23.40;60.47;96364.97;10445409;28;20113;-30
2023/08/26 14:54:08;;;;;;;0.52;0.50;;;;;;;23.40;60.43;96364.16;10424156;28;20072;-29
2023/08/26 14:59:08;;;;;;;0.40;0.40;;;;;;;23.40;60.20;96375.19;10438308;28;20098;-29
2023/08/26 15:04:09;;;;;;;0.40;0.40;;;;;;;23.40;60.41;96369.28;10424292;28;20112;-29
2023/08/26 15:09:09;;;;;;;0.85;0.60;;;;;;;23.39;60.43;96372.72;10449491;28;20037;-29
2023/08/26 15:14:10;;;;;;;0.68;0.65;;;;;;;23.39;60.36;96373.53;10431178;28;20379;-29
2023/08/26 15:19:10;;;;;;;0.50;0.50;;;;;;;23.39;60.44;96393.97;10432493;28;20088;-30
2023/08/26 15:24:10;;;;;;;0.57;0.53;;;;;;;23.39;60.37;96373.53;10430784;28;20033;-30
2023/08/26 15:29:11;;;;;;;0.50;0.50;;;;;;;23.39;60.19;96368.41;10439985;28;20037;-30
2023/08/26 15:34:14;;;;;;;0.50;0.40;;;;;;;23.39;60.42;96376.09;10424398;28;20029;-30
2023/08/26 15:39:15;;;;;;;0.40;0.40;;;;;;;23.40;60.12;96387.97;10427494;28;20037;-29
2023/08/26 15:44:16;;;;;;;0.75;0.50;;;;;;;23.39;60.41;96381.19;10446198;28;20078;-30
2023/08/26 15:49:16;;;;;;;0.40;0.40;;;;;;;23.34;60.24;96385.56;10417900;28;20043;-29
2023/08/26 15:54:16;;;;;;;0.47;0.47;;;;;;;23.38;60.23;96371.84;10439751;28;20033;-29
2023/08/26 15:59:17;;;;;;;0.50;0.50;;;;;;;23.38;60.19;96379.53;10430446;28;20041;-29
2023/08/26 16:04:19;;;;;;;1.07;0.60;;;;;;;23.38;60.31;96376.09;10442099;28;20289;-30
2023/08/26 16:09:20;;;;;;;0.20;0.20;;;;;;;23.38;60.16;96373.56;10426913;28;20124;-30
2023/08/26 16:14:20;;;;;;;0.50;0.50;;;;;;;23.38;60.19;96387.19;10436400;28;20495;-30
2023/08/26 16:19:21;;;;;;;0.50;0.50;;;;;;;23.38;60.42;96387.19;10455648;28;20029;-29
2023/08/26 16:24:21;;;;;;;0.40;0.40;;;;;;;23.38;60.34;96387.19;10442785;28;20055;-32
2023/08/26 16:29:21;;;;;;;1.00;0.43;;;;;;;23.37;60.14;96382.09;10443107;28;20022;-30
2023/08/26 16:34:22;;;;;;;0.40;0.40;;;;;;;23.38;60.11;96386.31;10413651;28;20044;-29
2023/08/26 16:39:22;;;;;;;0.30;0.30;;;;;;;23.38;60.36;96394.00;10434553;28;20095;-29
2023/08/26 16:44:22;;;;;;;0.40;0.37;;;;;;;23.37;60.23;96380.41;10441837;28;20032;-30
2023/08/26 16:49:23;;;;;;;0.30;0.30;;;;;;;23.37;60.16;96380.41;10432339;28;20295;-30
2023/08/26 16:54:23;;;;;;;0.50;0.50;;;;;;;23.37;60.22;96387.22;10436389;28;20041;-29
2023/08/26 16:59:26;;;;;;;0.30;0.20;;;;;;;23.36;60.28;96375.31;10429621;28;20037;-29
2023/08/26 17:04:29;;;;;;;0.40;0.40;;;;;;;23.36;60.08;96371.06;10440029;28;20036;-29
2023/08/26 17:09:29;;;;;;;0.30;0.30;;;;;;;23.35;60.32;96361.72;10441443;28;20036;-30
2023/08/26 17:14:29;;;;;;;0.30;0.30;;;;;;;23.36;60.37;96378.72;10431842;28;20029;-30
2023/08/26 17:19:30;;;;;;;0.30;0.30;;;;;;;23.36;60.14;96367.66;10432052;28;20037;-30
2023/08/26 17:24:32;;;;;;;0.30;0.30;;;;;;;23.35;60.30;96364.28;10426765;28;20030;-30
2023/08/26 17:29:32;;;;;;;0.85;0.73;;;;;;;23.35;60.31;96377.06;10449203;28;20442;-29
2023/08/26 17:34:33;;;;;;;0.40;0.40;;;;;;;23.36;60.20;96368.50;10417820;28;20043;-30
2023/08/26 17:39:33;;;;;;;0.67;0.50;;;;;;;23.35;60.25;96361.72;10432682;28;20028;-29
2023/08/26 17:44:35;;;;;;;0.33;0.33;;;;;;;23.36;60.20;96383.84;10429186;28;20037;-30
2023/08/26 17:49:35;;;;;;;0.88;0.38;;;;;;;23.35;59.98;96360.88;10426520;28;20116;-30
2023/08/26 17:54:36;;;;;;;0.50;0.50;;;;;;;23.35;60.05;96376.19;10436936;28;20032;-29
2023/08/26 17:59:37;;;;;;;0.43;0.43;;;;;;;23.36;60.22;96377.88;10422725;28;20508;-30
2023/08/26 18:04:37;;;;;;;0.40;0.30;;;;;;;23.34;60.23;96360.00;10439608;28;20063;-29
2023/08/26 18:09:38;;;;;;;0.60;0.60;;;;;;;23.36;60.30;96378.72;10419324;28;20043;-30
2023/08/26 18:14:38;;;;;;;0.30;0.30;;;;;;;23.35;60.30;96381.31;10442593;28;20267;-30
2023/08/26 18:19:39;;;;;;;1.60;0.40;;;;;;;23.32;59.96;96379.66;10433207;28;20037;-29
2023/08/26 18:24:39;;;;;;;0.37;0.37;;;;;;;23.34;60.22;96369.41;10434073;28;20407;-30
2023/08/26 18:29:40;;;;;;;0.30;0.30;;;;;;;23.34;60.21;96370.22;10429152;28;20056;-29
2023/08/26 18:34:41;;;;;;;1.27;0.50;;;;;;;23.36;60.13;96363.41;10419153;28;20029;-29
2023/08/26 18:39:41;;;;;;;0.38;0.38;;;;;;;23.35;60.42;96371.09;10445266;28;20033;-29
2023/08/26 18:44:44;;;;;;;0.40;0.32;;;;;;;23.34;60.29;96354.91;10436278;28;20029;-31
2023/08/26 18:49:44;;;;;;;0.30;0.30;;;;;;;23.33;59.91;96360.91;10441756;28;20076;-29
2023/08/26 18:54:44;;;;;;;0.30;0.30;;;;;;;23.34;60.39;96371.97;10430594;28;20033;-32
2023/08/26 18:59:45;;;;;;;0.30;0.30;;;;;;;23.34;60.11;96364.31;10420369;28;20033;-30
2023/08/26 19:04:46;;;;;;;0.43;0.43;;;;;;;23.33;60.21;96358.34;10438609;28;20028;-29
2023/08/26 19:09:46;;;;;;;0.25;0.25;;;;;;;23.34;60.46;96360.00;10408291;28;20048;-29
2023/08/26 19:14:46;;;;;;;1.27;0.80;;;;;;;23.33;61.40;96363.44;10441023;28;20029;-29
2023/08/26 19:19:47;;;;;;;2.90;0.73;;;;;;;23.33;60.74;96371.13;10433169;28;20033;-30
2023/08/26 19:24:47;;;;;;;1.13;0.70;;;;;;;23.33;60.33;96363.44;10441105;28;20037;-30
2023/08/26 19:29:47;;;;;;;0.70;0.60;;;;;;;23.33;60.31;96362.63;10433149;28;20028;-30
2023/08/26 19:34:48;;;;;;;1.67;0.70;;;;;;;23.32;60.32;96359.22;10429222;28;20314;-29
2023/08/26 19:39:48;;;;;;;0.60;0.60;;;;;;;23.33;60.20;96358.34;10446804;28;20025;-30
2023/08/26 19:44:49;;;;;;;0.87;0.50;;;;;;;23.34;60.26;96351.53;10439031;28;20037;-30
2023/08/26 19:49:49;;;;;;;2.47;0.50;;;;;;;23.33;60.17;96353.22;10442922;28;20025;-29
2023/08/26 19:54:49;;;;;;;0.80;0.47;;;;;;;23.32;60.33;96341.34;10437754;28;20287;-30
2023/08/26 19:59:51;;;;;;;0.37;0.30;;;;;;;23.33;60.02;96348.13;10448054;28;20036;-29
2023/08/26 20:04:52;;;;;;;1.27;0.50;;;;;;;23.33;60.00;96343.00;10428862;28;20399;-30
2023/08/26 20:09:53;;;;;;;1.07;0.43;;;;;;;23.31;60.35;96338.84;10440411;28;20033;-29
2023/08/26 20:14:58;;;;;;;0.40;0.40;;;;;;;23.32;60.16;96331.13;10436794;28;20112;-30
2023/08/26 20:19:58;;;;;;;0.65;0.50;;;;;;;23.31;60.57;96323.50;10407495;28;20044;-30
2023/08/26 20:24:59;;;;;;;0.25;0.25;;;;;;;23.32;60.21;96326.00;10436987;28;20510;-30
2023/08/26 20:29:59;;;;;;;1.20;0.68;;;;;;;23.33;60.18;96331.97;10433534;28;20044;-29
2023/08/26 20:35:00;;;;;;;0.50;0.50;;;;;;;23.33;60.04;96324.31;10436365;28;20079;-30
2023/08/26 20:40:00;;;;;;;2.00;0.30;;;;;;;23.32;60.20;96309.88;10430382;28;20044;-29
2023/08/26 20:45:01;;;;;;;0.53;0.43;;;;;;;23.31;59.92;96306.47;10442935;28;20038;-29
2023/08/26 20:50:02;;;;;;;0.40;0.40;;;;;;;23.31;60.17;96308.19;10428116;28;20351;-30
2023/08/26 20:55:03;;;;;;;0.68;0.50;;;;;;;23.32;60.13;96302.19;10429188;28;20350;-30
2023/08/26 21:00:05;;;;;;;0.30;0.30;;;;;;;23.31;60.15;96314.13;10436054;28;20028;-30
2023/08/26 21:05:06;;;;;;;0.40;0.40;;;;;;;23.32;60.06;96314.97;10426187;28;20091;-29
2023/08/26 21:10:07;;;;;;;0.35;0.32;;;;;;;23.32;60.17;96320.09;10435535;28;20568;-29
2023/08/26 21:15:09;;;;;;;0.40;0.40;;;;;;;23.31;60.27;96311.56;10433073;28;20071;-29
2023/08/26 21:20:10;;;;;;;0.98;0.50;;;;;;;23.32;60.29;96309.88;10440778;28;20068;-30
2023/08/26 21:25:11;;;;;;;0.90;0.30;;;;;;;23.31;60.15;96297.97;10443974;28;20056;-29
2023/08/26 21:30:11;;;;;;;1.07;0.53;;;;;;;23.27;60.23;96297.22;10435342;28;20522;-29
2023/08/26 21:35:12;;;;;;;0.20;0.20;;;;;;;23.30;60.34;96281.78;10444574;28;20034;-30
2023/08/26 21:40:13;;;;;;;0.30;0.30;;;;;;;23.30;60.33;96274.13;10423937;28;20033;-29
2023/08/26 21:45:14;;;;;;;0.98;0.40;;;;;;;23.31;60.27;96283.47;10447251;28;20040;-29
2023/08/26 21:50:14;;;;;;;0.30;0.30;;;;;;;23.30;60.26;96269.03;10426490;28;20039;-29
2023/08/26 21:55:15;;;;;;;0.27;0.27;;;;;;;23.30;59.98;96261.34;10435970;28;20503;-30
2023/08/26 22:00:16;;;;;;;0.60;0.40;;;;;;;23.30;60.08;96250.28;10442411;28;20283;-30
2023/08/26 22:05:16;;;;;;;0.47;0.40;;;;;;;23.30;60.30;96235.81;10420398;28;20384;-30
2023/08/26 22:10:17;;;;;;;0.50;0.50;;;;;;;23.25;60.25;96226.59;10451391;28;20273;-29
2023/08/26 22:15:17;;;;;;;0.90;0.40;;;;;;;23.30;60.14;96238.38;10427312;28;20040;-30
2023/08/26 22:20:17;;;;;;;0.40;0.30;;;;;;;23.27;60.14;96222.28;10434281;28;20044;-30
2023/08/26 22:25:18;;;;;;;0.50;0.50;;;;;;;23.28;60.05;96227.34;10418648;28;20057;-29
2023/08/26 22:30:18;;;;;;;0.30;0.30;;;;;;;23.28;60.19;96224.81;10439001;28;20038;-30
2023/08/26 22:35:19;;;;;;;0.60;0.50;;;;;;;23.27;60.23;96235.91;10416864;28;20434;-29
2023/08/26 22:40:19;;;;;;;0.40;0.30;;;;;;;23.28;60.04;96222.25;10411091;28;20523;-30
2023/08/26 22:45:20;;;;;;;0.73;0.40;;;;;;;23.30;60.21;96209.41;10425327;28;20407;-30
2023/08/26 22:50:20;;;;;;;0.80;0.40;;;;;;;23.29;60.21;96203.47;10424865;28;20033;-30
2023/08/26 22:55:22;;;;;;;0.40;0.40;;;;;;;23.28;59.92;96201.81;10433249;28;20480;-29
2023/08/26 23:00:23;;;;;;;0.88;0.40;;;;;;;23.29;60.11;96216.25;10400816;28;20030;-30
2023/08/26 23:05:23;;;;;;;0.52;0.32;;;;;;;23.30;60.05;96217.94;10421922;28;20562;-29
2023/08/26 23:10:24;;;;;;;0.60;0.50;;;;;;;23.29;60.23;96225.63;10433492;28;20327;-29
2023/08/26 23:15:24;;;;;;;0.40;0.30;;;;;;;23.28;60.13;96232.47;10399620;28;20029;-29
2023/08/26 23:20:24;;;;;;;1.00;0.40;;;;;;;23.27;60.11;96200.13;10416713;28;20279;-29